Aviation Digital Data Service (ADDS)

Output produced by METARs form (1704 UTC 24 April 2017)
found at http://www.aviationweather.gov/adds/metars/
 
KBID 241656Z AUTO 17006KT 10SM CLR 11/06 A3020 RMK AO2 SLP232 T01110061
KUUU 241653Z AUTO 19011KT 10SM CLR 11/07 A3019 RMK AO2 SLP222 T01110067
KSFZ 241656Z AUTO 14007KT 10SM CLR 19/05 A3016 RMK AO2 SLP234 T01890050
KPVD 241651Z 15012KT 10SM CLR 14/07 A3017 RMK AO2 SLP218 T01390067
KPVD 241504Z 2415/2512 16010KT P6SM SCT120 BKN250 
     FM250200 11006KT P6SM OVC100 
     FM250400 09006KT P6SM BKN030 
     FM250700 06006KT P6SM OVC060 
     FM250900 06010KT P6SM VCSH OVC045
       
KWST 241653Z AUTO 16008KT 10SM CLR 12/06 A3019 RMK AO2 SLP225 T01170056